SWR8226 LSZH-LEBB
Flight info
| Callsign | SWR8226 |
|---|---|
| Flight time | 1h 33m |
| Altitude | 33000 |
| Route | VEBIT T50 ROTOS Z669 ULMES DCT VADAR DCT NINTU/N0454F390 DCT MEBAK DCT REPSI DCT LERGA DCT MINSO DCT NARAK DCT AGN DCT LATEK DCT PPN M601 CEGAM |
| Aircraft | A20N/M-SADE2E3FGIRWXY/LB1 |
Departure
| Time | 2026-05-07 17:28 |
|---|---|
| Airport | Zürich Airport (LSZH) |
Arrival
| Time | 2026-05-07 19:01 |
|---|---|
| Airport | Bilbao Airport (LEBB) |
| Time | Latitude | Longitude | Altitude | Speed | Heading |
|---|---|---|---|---|---|
| 2026-05-07 17:01 | 47.45410 | 8.55946 | 1400 ft | 0 kts | 185° |
| 2026-05-07 17:17 | 47.45413 | 8.55947 | 1400 ft | 3 kts | 185° |
| 2026-05-07 17:18 | 47.45432 | 8.55949 | 1401 ft | 3 kts | 185° |
| 2026-05-07 17:18 | 47.45451 | 8.55952 | 1405 ft | 3 kts | 185° |
| 2026-05-07 17:18 | 47.45469 | 8.55954 | 1405 ft | 3 kts | 209° |
| 2026-05-07 17:18 | 47.45485 | 8.55969 | 1410 ft | 3 kts | 241° |
| 2026-05-07 17:19 | 47.45488 | 8.55984 | 1410 ft | 0 kts | 271° |
| 2026-05-07 17:20 | 47.45488 | 8.55976 | 1410 ft | 3 kts | 271° |
| 2026-05-07 17:21 | 47.45489 | 8.55933 | 1410 ft | 6 kts | 273° |
| 2026-05-07 17:21 | 47.45499 | 8.55871 | 1401 ft | 6 kts | 296° |
| 2026-05-07 17:21 | 47.45521 | 8.55843 | 1402 ft | 4 kts | 344° |
| 2026-05-07 17:21 | 47.45545 | 8.55843 | 1401 ft | 3 kts | 4° |
| 2026-05-07 17:22 | 47.45568 | 8.55846 | 1400 ft | 4 kts | 6° |
| 2026-05-07 17:22 | 47.45595 | 8.55850 | 1400 ft | 4 kts | 5° |
| 2026-05-07 17:22 | 47.45624 | 8.55867 | 1407 ft | 4 kts | 41° |
| 2026-05-07 17:22 | 47.45633 | 8.55916 | 1405 ft | 6 kts | 93° |
| 2026-05-07 17:23 | 47.45629 | 8.55974 | 1404 ft | 6 kts | 96° |
| 2026-05-07 17:23 | 47.45625 | 8.56039 | 1400 ft | 6 kts | 95° |
| 2026-05-07 17:23 | 47.45621 | 8.56102 | 1400 ft | 6 kts | 95° |
| 2026-05-07 17:23 | 47.45617 | 8.56165 | 1409 ft | 6 kts | 95° |
| 2026-05-07 17:24 | 47.45613 | 8.56222 | 1401 ft | 5 kts | 97° |
| 2026-05-07 17:24 | 47.45608 | 8.56274 | 1400 ft | 5 kts | 97° |
| 2026-05-07 17:24 | 47.45604 | 8.56325 | 1405 ft | 5 kts | 97° |
| 2026-05-07 17:24 | 47.45598 | 8.56396 | 1405 ft | 9 kts | 96° |
| 2026-05-07 17:25 | 47.45591 | 8.56490 | 1404 ft | 9 kts | 96° |
| 2026-05-07 17:25 | 47.45586 | 8.56591 | 1400 ft | 11 kts | 95° |
| 2026-05-07 17:25 | 47.45577 | 8.56714 | 1407 ft | 13 kts | 95° |
| 2026-05-07 17:25 | 47.45569 | 8.56855 | 1400 ft | 15 kts | 94° |
| 2026-05-07 17:26 | 47.45564 | 8.56989 | 1401 ft | 12 kts | 70° |
| 2026-05-07 17:26 | 47.45617 | 8.57027 | 1402 ft | 9 kts | 8° |
| 2026-05-07 17:26 | 47.45661 | 8.57021 | 1401 ft | 1 kts | 293° |
| 2026-05-07 17:26 | 47.45661 | 8.57018 | 1401 ft | 0 kts | 275° |
| 2026-05-07 17:27 | 47.45690 | 8.56605 | 1406 ft | 72 kts | 276° |
| 2026-05-07 17:27 | 47.45736 | 8.55987 | 1405 ft | 110 kts | 276° |
| 2026-05-07 17:27 | 47.45832 | 8.54603 | 1456 ft | 150 kts | 277° |
| 2026-05-07 17:27 | 47.45907 | 8.53077 | 1988 ft | 149 kts | 275° |
| 2026-05-07 17:28 | 47.46004 | 8.51516 | 2520 ft | 156 kts | 276° |
| 2026-05-07 17:28 | 47.46107 | 8.49883 | 3013 ft | 164 kts | 276° |
| 2026-05-07 17:28 | 47.46100 | 8.48168 | 3527 ft | 172 kts | 258° |
| 2026-05-07 17:28 | 47.45459 | 8.46664 | 4158 ft | 181 kts | 217° |
| 2026-05-07 17:29 | 47.44315 | 8.45851 | 4829 ft | 185 kts | 206° |
| 2026-05-07 17:29 | 47.43341 | 8.44627 | 5448 ft | 186 kts | 233° |
| 2026-05-07 17:29 | 47.42619 | 8.43033 | 6096 ft | 188 kts | 239° |
| 2026-05-07 17:29 | 47.41950 | 8.41313 | 6591 ft | 202 kts | 241° |
| 2026-05-07 17:30 | 47.41235 | 8.39399 | 7028 ft | 222 kts | 241° |
| 2026-05-07 17:30 | 47.40459 | 8.37295 | 7476 ft | 243 kts | 241° |
| 2026-05-07 17:30 | 47.39621 | 8.35019 | 7972 ft | 261 kts | 241° |
| 2026-05-07 17:30 | 47.38735 | 8.32617 | 8550 ft | 278 kts | 241° |
| 2026-05-07 17:31 | 47.37791 | 8.30054 | 9220 ft | 291 kts | 241° |
| 2026-05-07 17:31 | 47.36800 | 8.27369 | 9910 ft | 303 kts | 241° |
| 2026-05-07 17:31 | 47.35767 | 8.24573 | 10526 ft | 316 kts | 241° |
| 2026-05-07 17:31 | 47.34691 | 8.21664 | 11154 ft | 328 kts | 241° |
| 2026-05-07 17:32 | 47.33577 | 8.18657 | 11790 ft | 339 kts | 241° |
| 2026-05-07 17:32 | 47.32428 | 8.15556 | 12439 ft | 350 kts | 241° |
| 2026-05-07 17:32 | 47.31246 | 8.12371 | 13102 ft | 359 kts | 241° |
| 2026-05-07 17:32 | 47.30046 | 8.09143 | 13765 ft | 368 kts | 241° |
| 2026-05-07 17:33 | 47.28800 | 8.05794 | 14378 ft | 376 kts | 241° |
| 2026-05-07 17:33 | 47.27532 | 8.02383 | 14988 ft | 383 kts | 242° |
| 2026-05-07 17:33 | 47.26338 | 7.98844 | 15608 ft | 389 kts | 245° |
| 2026-05-07 17:33 | 47.25240 | 7.95175 | 16237 ft | 394 kts | 247° |
| 2026-05-07 17:34 | 47.24191 | 7.91427 | 16887 ft | 398 kts | 248° |
| 2026-05-07 17:34 | 47.23157 | 7.87630 | 17548 ft | 402 kts | 248° |
| 2026-05-07 17:34 | 47.22113 | 7.83791 | 18228 ft | 406 kts | 248° |
| 2026-05-07 17:34 | 47.21052 | 7.79921 | 18832 ft | 409 kts | 248° |
| 2026-05-07 17:35 | 47.19961 | 7.76035 | 19427 ft | 412 kts | 246° |
| 2026-05-07 17:35 | 47.18596 | 7.72312 | 20044 ft | 414 kts | 238° |
| 2026-05-07 17:35 | 47.16990 | 7.68846 | 20664 ft | 417 kts | 235° |
| 2026-05-07 17:35 | 47.15257 | 7.65423 | 21307 ft | 419 kts | 233° |
| 2026-05-07 17:36 | 47.13452 | 7.62040 | 21970 ft | 420 kts | 232° |
| 2026-05-07 17:36 | 47.11623 | 7.58693 | 22630 ft | 421 kts | 232° |
| 2026-05-07 17:36 | 47.09779 | 7.55342 | 23316 ft | 421 kts | 232° |
| 2026-05-07 17:36 | 47.07935 | 7.51991 | 23879 ft | 423 kts | 232° |
| 2026-05-07 17:37 | 47.06084 | 7.48613 | 24350 ft | 425 kts | 232° |
| 2026-05-07 17:37 | 47.04231 | 7.45220 | 24831 ft | 427 kts | 233° |
| 2026-05-07 17:37 | 47.02371 | 7.41809 | 25310 ft | 429 kts | 233° |
| 2026-05-07 17:37 | 47.00502 | 7.38388 | 25770 ft | 431 kts | 233° |
| 2026-05-07 17:38 | 46.98617 | 7.34942 | 26157 ft | 435 kts | 233° |
| 2026-05-07 17:38 | 46.96736 | 7.31510 | 26536 ft | 438 kts | 233° |
| 2026-05-07 17:38 | 46.94821 | 7.28018 | 26920 ft | 441 kts | 233° |
| 2026-05-07 17:38 | 46.92894 | 7.24504 | 27308 ft | 443 kts | 233° |
| 2026-05-07 17:39 | 46.90957 | 7.20972 | 27709 ft | 446 kts | 233° |
| 2026-05-07 17:39 | 46.89010 | 7.17426 | 28131 ft | 448 kts | 233° |
| 2026-05-07 17:39 | 46.87057 | 7.13872 | 28556 ft | 449 kts | 233° |
| 2026-05-07 17:39 | 46.85102 | 7.10321 | 29025 ft | 447 kts | 233° |
| 2026-05-07 17:40 | 46.83160 | 7.06800 | 29446 ft | 444 kts | 233° |
| 2026-05-07 17:40 | 46.81221 | 7.03288 | 29880 ft | 443 kts | 233° |
| 2026-05-07 17:40 | 46.79299 | 6.99810 | 30286 ft | 443 kts | 233° |
| 2026-05-07 17:40 | 46.77364 | 6.96313 | 30673 ft | 441 kts | 233° |
| 2026-05-07 17:41 | 46.75437 | 6.92836 | 31044 ft | 439 kts | 233° |
| 2026-05-07 17:41 | 46.73520 | 6.89380 | 31465 ft | 437 kts | 233° |
| 2026-05-07 17:41 | 46.71607 | 6.85937 | 31851 ft | 435 kts | 233° |
| 2026-05-07 17:41 | 46.69706 | 6.82518 | 32234 ft | 434 kts | 233° |
| 2026-05-07 17:42 | 46.67802 | 6.79098 | 32628 ft | 433 kts | 233° |
| 2026-05-07 17:42 | 46.65995 | 6.75679 | 33003 ft | 429 kts | 238° |
| 2026-05-07 17:42 | 46.64368 | 6.72051 | 33193 ft | 427 kts | 239° |
| 2026-05-07 17:42 | 46.62786 | 6.68384 | 33040 ft | 427 kts | 240° |
| 2026-05-07 17:43 | 46.59693 | 6.60986 | 33020 ft | 429 kts | 240° |
| 2026-05-07 17:43 | 46.56610 | 6.53560 | 33018 ft | 429 kts | 240° |
| 2026-05-07 17:44 | 46.53520 | 6.46163 | 33338 ft | 427 kts | 240° |
| 2026-05-07 17:44 | 46.51982 | 6.42499 | 33817 ft | 423 kts | 240° |
| 2026-05-07 17:44 | 46.50455 | 6.38872 | 34273 ft | 419 kts | 240° |
| 2026-05-07 17:45 | 46.48939 | 6.35278 | 34685 ft | 415 kts | 240° |
| 2026-05-07 17:45 | 46.47436 | 6.31717 | 35104 ft | 410 kts | 240° |
| 2026-05-07 17:45 | 46.45954 | 6.28211 | 35545 ft | 405 kts | 239° |
| 2026-05-07 17:45 | 46.44508 | 6.24796 | 35983 ft | 400 kts | 240° |
| 2026-05-07 17:46 | 46.43064 | 6.21386 | 36426 ft | 394 kts | 240° |
| 2026-05-07 17:46 | 46.41641 | 6.18032 | 36879 ft | 387 kts | 239° |
| 2026-05-07 17:46 | 46.40224 | 6.14695 | 37324 ft | 380 kts | 239° |
| 2026-05-07 17:46 | 46.38855 | 6.11474 | 37797 ft | 372 kts | 239° |
| 2026-05-07 17:47 | 46.37521 | 6.08338 | 38075 ft | 369 kts | 239° |
| 2026-05-07 17:47 | 46.36174 | 6.05175 | 38152 ft | 370 kts | 239° |
| 2026-05-07 17:47 | 46.33454 | 5.98799 | 38281 ft | 373 kts | 239° |
| 2026-05-07 17:48 | 46.30701 | 5.92361 | 38328 ft | 379 kts | 239° |
| 2026-05-07 17:48 | 46.27896 | 5.85818 | 38336 ft | 385 kts | 239° |
| 2026-05-07 17:49 | 46.25061 | 5.79223 | 38350 ft | 392 kts | 239° |
| 2026-05-07 17:49 | 46.22146 | 5.72455 | 38345 ft | 399 kts | 239° |
| 2026-05-07 17:50 | 46.19180 | 5.65588 | 38357 ft | 406 kts | 239° |
| 2026-05-07 17:50 | 46.16157 | 5.58605 | 38367 ft | 414 kts | 239° |
| 2026-05-07 17:51 | 46.13285 | 5.52180 | 38383 ft | 421 kts | 237° |
| 2026-05-07 17:51 | 46.09930 | 5.45168 | 38452 ft | 427 kts | 236° |
| 2026-05-07 17:52 | 46.06265 | 5.37625 | 38478 ft | 427 kts | 236° |
| 2026-05-07 17:52 | 46.02863 | 5.30599 | 38473 ft | 427 kts | 236° |
| 2026-05-07 17:53 | 45.99470 | 5.23580 | 38469 ft | 427 kts | 236° |
| 2026-05-07 17:53 | 45.96099 | 5.16612 | 38466 ft | 427 kts | 236° |
| 2026-05-07 17:54 | 45.92698 | 5.09602 | 38474 ft | 428 kts | 236° |
| 2026-05-07 17:54 | 45.89287 | 5.02590 | 38473 ft | 428 kts | 236° |
| 2026-05-07 17:55 | 45.85869 | 4.95580 | 38480 ft | 428 kts | 236° |
| 2026-05-07 17:55 | 45.82452 | 4.88590 | 38493 ft | 428 kts | 236° |
| 2026-05-07 17:56 | 45.79028 | 4.81603 | 38488 ft | 428 kts | 235° |
| 2026-05-07 17:56 | 45.75621 | 4.74669 | 38491 ft | 428 kts | 235° |
| 2026-05-07 17:57 | 45.72766 | 4.68870 | 38505 ft | 428 kts | 235° |
| 2026-05-07 17:57 | 45.68752 | 4.60737 | 38506 ft | 428 kts | 235° |
| 2026-05-07 17:58 | 45.65340 | 4.53839 | 38501 ft | 428 kts | 235° |
| 2026-05-07 17:58 | 45.61891 | 4.46884 | 38505 ft | 428 kts | 235° |
| 2026-05-07 17:59 | 45.58444 | 4.39952 | 38516 ft | 428 kts | 235° |
| 2026-05-07 17:59 | 45.54989 | 4.33018 | 38516 ft | 428 kts | 235° |
| 2026-05-07 18:00 | 45.51534 | 4.26102 | 38524 ft | 428 kts | 235° |
| 2026-05-07 18:00 | 45.48094 | 4.19239 | 38512 ft | 428 kts | 235° |
| 2026-05-07 18:01 | 45.44617 | 4.12319 | 38513 ft | 429 kts | 235° |
| 2026-05-07 18:01 | 45.41139 | 4.05417 | 38510 ft | 429 kts | 235° |
| 2026-05-07 18:02 | 45.35935 | 3.95115 | 38505 ft | 429 kts | 234° |
| 2026-05-07 18:03 | 45.32442 | 3.88223 | 38511 ft | 429 kts | 234° |
| 2026-05-07 18:03 | 45.28951 | 3.81351 | 38522 ft | 428 kts | 234° |
| 2026-05-07 18:04 | 45.25459 | 3.74478 | 38506 ft | 428 kts | 235° |
| 2026-05-07 18:04 | 45.22032 | 3.67562 | 38511 ft | 428 kts | 235° |
| 2026-05-07 18:05 | 45.18628 | 3.60626 | 38529 ft | 428 kts | 235° |
| 2026-05-07 18:05 | 45.15240 | 3.53743 | 38527 ft | 428 kts | 235° |
| 2026-05-07 18:06 | 45.11815 | 3.46820 | 38522 ft | 428 kts | 235° |
| 2026-05-07 18:06 | 45.08396 | 3.39935 | 38524 ft | 428 kts | 235° |
| 2026-05-07 18:07 | 45.04966 | 3.33043 | 38531 ft | 428 kts | 235° |
| 2026-05-07 18:07 | 45.01557 | 3.26208 | 38545 ft | 428 kts | 235° |
| 2026-05-07 18:08 | 44.98124 | 3.19344 | 38547 ft | 427 kts | 235° |
| 2026-05-07 18:08 | 44.94685 | 3.12482 | 38541 ft | 428 kts | 235° |
| 2026-05-07 18:09 | 44.91247 | 3.05638 | 38555 ft | 427 kts | 234° |
| 2026-05-07 18:09 | 44.87803 | 2.98800 | 38573 ft | 428 kts | 234° |
| 2026-05-07 18:10 | 44.84371 | 2.91944 | 38573 ft | 428 kts | 236° |
| 2026-05-07 18:10 | 44.81120 | 2.84986 | 38583 ft | 427 kts | 237° |
| 2026-05-07 18:11 | 44.77901 | 2.77923 | 38588 ft | 428 kts | 237° |
| 2026-05-07 18:11 | 44.74677 | 2.70885 | 38590 ft | 428 kts | 237° |
| 2026-05-07 18:12 | 44.71431 | 2.63861 | 38602 ft | 428 kts | 237° |
| 2026-05-07 18:12 | 44.68195 | 2.56893 | 38609 ft | 428 kts | 237° |
| 2026-05-07 18:13 | 44.64937 | 2.49896 | 38613 ft | 428 kts | 237° |
| 2026-05-07 18:13 | 44.61670 | 2.42894 | 38630 ft | 428 kts | 237° |
| 2026-05-07 18:14 | 44.58401 | 2.35904 | 38628 ft | 428 kts | 237° |
| 2026-05-07 18:14 | 44.55133 | 2.28934 | 38639 ft | 428 kts | 237° |
| 2026-05-07 18:15 | 44.51873 | 2.21998 | 38638 ft | 429 kts | 236° |
| 2026-05-07 18:15 | 44.48583 | 2.15014 | 38641 ft | 429 kts | 236° |
| 2026-05-07 18:16 | 44.45287 | 2.08033 | 38643 ft | 429 kts | 236° |
| 2026-05-07 18:16 | 44.41986 | 2.01060 | 38641 ft | 429 kts | 236° |
| 2026-05-07 18:17 | 44.38681 | 1.94095 | 38642 ft | 429 kts | 236° |
| 2026-05-07 18:17 | 44.35398 | 1.87194 | 38644 ft | 429 kts | 236° |
| 2026-05-07 18:18 | 44.32084 | 1.80242 | 38644 ft | 430 kts | 236° |
| 2026-05-07 18:18 | 44.29327 | 1.74458 | 38649 ft | 430 kts | 237° |
| 2026-05-07 18:19 | 44.26079 | 1.67441 | 38648 ft | 430 kts | 237° |
| 2026-05-07 18:19 | 44.22861 | 1.60403 | 38645 ft | 430 kts | 237° |
| 2026-05-07 18:20 | 44.19634 | 1.53371 | 38643 ft | 430 kts | 237° |
| 2026-05-07 18:20 | 44.16394 | 1.46349 | 38648 ft | 431 kts | 237° |
| 2026-05-07 18:21 | 44.13142 | 1.39325 | 38657 ft | 431 kts | 237° |
| 2026-05-07 18:21 | 44.09882 | 1.32303 | 38661 ft | 432 kts | 237° |
| 2026-05-07 18:22 | 44.06641 | 1.25336 | 38662 ft | 432 kts | 237° |
| 2026-05-07 18:22 | 44.03370 | 1.18322 | 38660 ft | 432 kts | 237° |
| 2026-05-07 18:23 | 44.00094 | 1.11315 | 38663 ft | 432 kts | 237° |
| 2026-05-07 18:23 | 43.96808 | 1.04303 | 38659 ft | 433 kts | 237° |
| 2026-05-07 18:24 | 43.93515 | 0.97293 | 38662 ft | 434 kts | 237° |
| 2026-05-07 18:24 | 43.90216 | 0.90286 | 38664 ft | 434 kts | 237° |
| 2026-05-07 18:25 | 43.86509 | 0.83754 | 38657 ft | 434 kts | 230° |
| 2026-05-07 18:25 | 43.82509 | 0.77468 | 38657 ft | 435 kts | 229° |
| 2026-05-07 18:26 | 43.78448 | 0.71232 | 38661 ft | 435 kts | 229° |
| 2026-05-07 18:26 | 43.74390 | 0.65011 | 38663 ft | 436 kts | 229° |
| 2026-05-07 18:27 | 43.70354 | 0.58816 | 38664 ft | 436 kts | 229° |
| 2026-05-07 18:27 | 43.66293 | 0.52587 | 38665 ft | 436 kts | 229° |
| 2026-05-07 18:28 | 43.62222 | 0.46352 | 38664 ft | 436 kts | 229° |
| 2026-05-07 18:28 | 43.58157 | 0.40142 | 38669 ft | 436 kts | 229° |
| 2026-05-07 18:29 | 43.54108 | 0.33970 | 38670 ft | 437 kts | 229° |
| 2026-05-07 18:29 | 43.50022 | 0.27756 | 38671 ft | 438 kts | 229° |
| 2026-05-07 18:30 | 43.45922 | 0.21532 | 38675 ft | 438 kts | 228° |
| 2026-05-07 18:30 | 43.41825 | 0.15329 | 38672 ft | 438 kts | 229° |
| 2026-05-07 18:31 | 43.37713 | 0.09116 | 38670 ft | 438 kts | 229° |
| 2026-05-07 18:31 | 43.33630 | 0.02960 | 38672 ft | 438 kts | 229° |
| 2026-05-07 18:32 | 43.29507 | -0.03245 | 38686 ft | 439 kts | 228° |
| 2026-05-07 18:32 | 43.25377 | -0.09444 | 38689 ft | 440 kts | 228° |
| 2026-05-07 18:33 | 43.21245 | -0.15634 | 38683 ft | 439 kts | 228° |
| 2026-05-07 18:33 | 43.17137 | -0.21773 | 38692 ft | 439 kts | 228° |
| 2026-05-07 18:34 | 43.13001 | -0.27943 | 38695 ft | 439 kts | 228° |
| 2026-05-07 18:34 | 43.08861 | -0.34105 | 38705 ft | 439 kts | 228° |
| 2026-05-07 18:35 | 43.04724 | -0.40249 | 38712 ft | 439 kts | 228° |
| 2026-05-07 18:35 | 43.00581 | -0.46388 | 38716 ft | 439 kts | 228° |
| 2026-05-07 18:36 | 42.96438 | -0.52516 | 38707 ft | 439 kts | 228° |
| 2026-05-07 18:36 | 42.92309 | -0.58609 | 38716 ft | 439 kts | 228° |
| 2026-05-07 18:37 | 42.88538 | -0.65119 | 38626 ft | 437 kts | 241° |
| 2026-05-07 18:37 | 42.87286 | -0.68896 | 38143 ft | 438 kts | 252° |
| 2026-05-07 18:37 | 42.86499 | -0.72916 | 37469 ft | 439 kts | 256° |
| 2026-05-07 18:37 | 42.85879 | -0.77000 | 36827 ft | 440 kts | 258° |
| 2026-05-07 18:38 | 42.85342 | -0.81108 | 36196 ft | 440 kts | 259° |
| 2026-05-07 18:38 | 42.84837 | -0.85228 | 35543 ft | 441 kts | 259° |
| 2026-05-07 18:38 | 42.84331 | -0.89363 | 34825 ft | 443 kts | 259° |
| 2026-05-07 18:38 | 42.83813 | -0.93511 | 34122 ft | 445 kts | 258° |
| 2026-05-07 18:39 | 42.83280 | -0.97670 | 33322 ft | 446 kts | 258° |
| 2026-05-07 18:39 | 42.82740 | -1.01788 | 32527 ft | 447 kts | 258° |
| 2026-05-07 18:39 | 42.82185 | -1.05960 | 31745 ft | 448 kts | 258° |
| 2026-05-07 18:39 | 42.81624 | -1.10133 | 30978 ft | 448 kts | 258° |
| 2026-05-07 18:40 | 42.81060 | -1.14319 | 30270 ft | 448 kts | 258° |
| 2026-05-07 18:40 | 42.80498 | -1.18471 | 29725 ft | 446 kts | 258° |
| 2026-05-07 18:40 | 42.79935 | -1.22622 | 29149 ft | 445 kts | 258° |
| 2026-05-07 18:40 | 42.79374 | -1.26759 | 28586 ft | 442 kts | 258° |
| 2026-05-07 18:41 | 42.78816 | -1.30856 | 28039 ft | 439 kts | 257° |
| 2026-05-07 18:41 | 42.78261 | -1.34920 | 27503 ft | 436 kts | 257° |
| 2026-05-07 18:41 | 42.77707 | -1.38969 | 26971 ft | 433 kts | 257° |
| 2026-05-07 18:41 | 42.77157 | -1.42976 | 26484 ft | 430 kts | 257° |
| 2026-05-07 18:42 | 42.76608 | -1.46962 | 26096 ft | 427 kts | 257° |
| 2026-05-07 18:42 | 42.76060 | -1.50932 | 25718 ft | 425 kts | 257° |
| 2026-05-07 18:42 | 42.75514 | -1.54877 | 25355 ft | 423 kts | 257° |
| 2026-05-07 18:42 | 42.74974 | -1.58764 | 25026 ft | 422 kts | 257° |
| 2026-05-07 18:43 | 42.74430 | -1.62672 | 24678 ft | 420 kts | 257° |
| 2026-05-07 18:43 | 42.74101 | -1.66609 | 24336 ft | 420 kts | 267° |
| 2026-05-07 18:43 | 42.74409 | -1.70572 | 24002 ft | 423 kts | 281° |
| 2026-05-07 18:43 | 42.75444 | -1.74335 | 23680 ft | 426 kts | 293° |
| 2026-05-07 18:44 | 42.76843 | -1.77890 | 23321 ft | 426 kts | 297° |
| 2026-05-07 18:44 | 42.78391 | -1.81324 | 22934 ft | 425 kts | 300° |
| 2026-05-07 18:44 | 42.80004 | -1.84686 | 22554 ft | 423 kts | 301° |
| 2026-05-07 18:44 | 42.81632 | -1.88016 | 22098 ft | 420 kts | 301° |
| 2026-05-07 18:45 | 42.83236 | -1.91310 | 21579 ft | 415 kts | 301° |
| 2026-05-07 18:45 | 42.84788 | -1.94538 | 21057 ft | 409 kts | 300° |
| 2026-05-07 18:45 | 42.86320 | -1.97775 | 20545 ft | 403 kts | 300° |
| 2026-05-07 18:45 | 42.87822 | -2.00970 | 20040 ft | 398 kts | 300° |
| 2026-05-07 18:46 | 42.89303 | -2.04135 | 19542 ft | 394 kts | 300° |
| 2026-05-07 18:46 | 42.90768 | -2.07271 | 19058 ft | 389 kts | 300° |
| 2026-05-07 18:46 | 42.92217 | -2.10378 | 18580 ft | 387 kts | 300° |
| 2026-05-07 18:46 | 42.93658 | -2.13472 | 18092 ft | 384 kts | 301° |
| 2026-05-07 18:47 | 42.95085 | -2.16538 | 17545 ft | 381 kts | 301° |
| 2026-05-07 18:47 | 42.96498 | -2.19580 | 17015 ft | 378 kts | 301° |
| 2026-05-07 18:47 | 42.97856 | -2.22645 | 16491 ft | 375 kts | 295° |
| 2026-05-07 18:47 | 42.98797 | -2.25946 | 15974 ft | 371 kts | 287° |
| 2026-05-07 18:48 | 42.99571 | -2.29286 | 15473 ft | 366 kts | 285° |
| 2026-05-07 18:48 | 43.00329 | -2.32591 | 14968 ft | 363 kts | 286° |
| 2026-05-07 18:48 | 43.01075 | -2.35864 | 14477 ft | 359 kts | 285° |
| 2026-05-07 18:48 | 43.01822 | -2.39100 | 13994 ft | 356 kts | 287° |
| 2026-05-07 18:49 | 43.02770 | -2.42216 | 13488 ft | 353 kts | 294° |
| 2026-05-07 18:49 | 43.03864 | -2.45200 | 12976 ft | 350 kts | 295° |
| 2026-05-07 18:49 | 43.04976 | -2.48123 | 12570 ft | 344 kts | 295° |
| 2026-05-07 18:49 | 43.06078 | -2.50942 | 12184 ft | 338 kts | 296° |
| 2026-05-07 18:50 | 43.07176 | -2.53754 | 11803 ft | 332 kts | 296° |
| 2026-05-07 18:50 | 43.08251 | -2.56525 | 11411 ft | 327 kts | 296° |
| 2026-05-07 18:50 | 43.09299 | -2.59254 | 11036 ft | 321 kts | 297° |
| 2026-05-07 18:50 | 43.10306 | -2.61956 | 10652 ft | 317 kts | 294° |
| 2026-05-07 18:51 | 43.11327 | -2.64612 | 10290 ft | 313 kts | 296° |
| 2026-05-07 18:51 | 43.12328 | -2.67236 | 9926 ft | 309 kts | 295° |
| 2026-05-07 18:51 | 43.13324 | -2.69821 | 9543 ft | 304 kts | 295° |
| 2026-05-07 18:51 | 43.14314 | -2.72365 | 9154 ft | 299 kts | 296° |
| 2026-05-07 18:52 | 43.15281 | -2.74850 | 8746 ft | 292 kts | 295° |
| 2026-05-07 18:52 | 43.16220 | -2.77264 | 8364 ft | 291 kts | 295° |
| 2026-05-07 18:52 | 43.17170 | -2.79707 | 7993 ft | 289 kts | 295° |
| 2026-05-07 18:52 | 43.18111 | -2.82132 | 7606 ft | 288 kts | 295° |
| 2026-05-07 18:53 | 43.19050 | -2.84546 | 7238 ft | 286 kts | 296° |
| 2026-05-07 18:53 | 43.19977 | -2.86946 | 6874 ft | 284 kts | 296° |
| 2026-05-07 18:53 | 43.20887 | -2.89346 | 6490 ft | 281 kts | 295° |
| 2026-05-07 18:53 | 43.21785 | -2.91725 | 6124 ft | 280 kts | 295° |
| 2026-05-07 18:54 | 43.22683 | -2.94096 | 5741 ft | 279 kts | 295° |
| 2026-05-07 18:54 | 43.23571 | -2.96427 | 5374 ft | 278 kts | 295° |
| 2026-05-07 18:54 | 43.24483 | -2.98804 | 5051 ft | 278 kts | 295° |
| 2026-05-07 18:54 | 43.25368 | -3.01117 | 4808 ft | 276 kts | 295° |
| 2026-05-07 18:55 | 43.26260 | -3.03447 | 4547 ft | 275 kts | 295° |
| 2026-05-07 18:55 | 43.27147 | -3.05770 | 4301 ft | 274 kts | 295° |
| 2026-05-07 18:55 | 43.28031 | -3.08084 | 4043 ft | 273 kts | 295° |
| 2026-05-07 18:55 | 43.28923 | -3.10383 | 3805 ft | 272 kts | 296° |
| 2026-05-07 18:56 | 43.29803 | -3.12672 | 3561 ft | 270 kts | 296° |
| 2026-05-07 18:56 | 43.30909 | -3.14729 | 3486 ft | 267 kts | 319° |
| 2026-05-07 18:56 | 43.32490 | -3.15855 | 3462 ft | 249 kts | 341° |
| 2026-05-07 18:56 | 43.34132 | -3.16227 | 3322 ft | 236 kts | 7° |
| 2026-05-07 18:57 | 43.35616 | -3.15466 | 3034 ft | 227 kts | 40° |
| 2026-05-07 18:57 | 43.36510 | -3.13772 | 2901 ft | 217 kts | 74° |
| 2026-05-07 18:57 | 43.36865 | -3.11799 | 3007 ft | 209 kts | 90° |
| 2026-05-07 18:57 | 43.36640 | -3.09862 | 2843 ft | 205 kts | 107° |
| 2026-05-07 18:58 | 43.36235 | -3.07979 | 2589 ft | 205 kts | 110° |
| 2026-05-07 18:58 | 43.35695 | -3.06230 | 2334 ft | 197 kts | 118° |
| 2026-05-07 18:58 | 43.35063 | -3.04625 | 2079 ft | 186 kts | 120° |
| 2026-05-07 18:58 | 43.34434 | -3.03073 | 1819 ft | 185 kts | 120° |
| 2026-05-07 18:59 | 43.33802 | -3.01534 | 1572 ft | 185 kts | 120° |
| 2026-05-07 18:59 | 43.33237 | -2.99994 | 1321 ft | 176 kts | 114° |
| 2026-05-07 18:59 | 43.32787 | -2.98506 | 1119 ft | 159 kts | 112° |
| 2026-05-07 18:59 | 43.32353 | -2.97166 | 872 ft | 150 kts | 116° |
| 2026-05-07 19:00 | 43.31890 | -2.95917 | 720 ft | 143 kts | 119° |
| 2026-05-07 19:00 | 43.31454 | -2.94721 | 563 ft | 136 kts | 117° |
| 2026-05-07 19:00 | 43.31039 | -2.93576 | 398 ft | 132 kts | 119° |
| 2026-05-07 19:00 | 43.30633 | -2.92478 | 207 ft | 129 kts | 118° |
| 2026-05-07 19:01 | 43.30230 | -2.91428 | 130 ft | 110 kts | 115° |
| 2026-05-07 19:01 | 43.29982 | -2.90714 | 129 ft | 58 kts | 116° |
| 2026-05-07 19:01 | 43.29879 | -2.90429 | 128 ft | 18 kts | 116° |
| 2026-05-07 19:01 | 43.29821 | -2.90275 | 130 ft | 18 kts | 117° |
| 2026-05-07 19:02 | 43.29763 | -2.90118 | 126 ft | 19 kts | 117° |
| 2026-05-07 19:02 | 43.29703 | -2.89956 | 127 ft | 19 kts | 117° |
| 2026-05-07 19:02 | 43.29648 | -2.89802 | 130 ft | 16 kts | 114° |
| 2026-05-07 19:02 | 43.29658 | -2.89676 | 129 ft | 10 kts | 51° |
| 2026-05-07 19:03 | 43.29704 | -2.89609 | 128 ft | 9 kts | 47° |
| 2026-05-07 19:03 | 43.29738 | -2.89582 | 131 ft | 8 kts | 1° |
| 2026-05-07 19:03 | 43.29768 | -2.89622 | 130 ft | 6 kts | 297° |
| 2026-05-07 19:03 | 43.29794 | -2.89691 | 128 ft | 6 kts | 297° |
| 2026-05-07 19:04 | 43.29807 | -2.89726 | 127 ft | 6 kts | 297° |
| 2026-05-07 19:04 | 43.29827 | -2.89779 | 130 ft | 6 kts | 297° |
| 2026-05-07 19:04 | 43.29846 | -2.89832 | 128 ft | 6 kts | 296° |
| 2026-05-07 19:04 | 43.29867 | -2.89890 | 128 ft | 8 kts | 295° |
| 2026-05-07 19:05 | 43.29893 | -2.89961 | 129 ft | 9 kts | 298° |
| 2026-05-07 19:05 | 43.29924 | -2.90044 | 128 ft | 11 kts | 296° |
| 2026-05-07 19:05 | 43.29959 | -2.90141 | 129 ft | 12 kts | 296° |
| 2026-05-07 19:05 | 43.29999 | -2.90249 | 126 ft | 13 kts | 297° |
| 2026-05-07 19:06 | 43.30036 | -2.90351 | 131 ft | 10 kts | 297° |
| 2026-05-07 19:06 | 43.30097 | -2.90516 | 128 ft | 10 kts | 296° |
| 2026-05-07 19:06 | 43.30130 | -2.90572 | 128 ft | 8 kts | 338° |
| 2026-05-07 19:07 | 43.30181 | -2.90555 | 106 ft | 8 kts | 25° |
| 2026-05-07 19:07 | 43.30229 | -2.90526 | 127 ft | 7 kts | 12° |
| 2026-05-07 19:07 | 43.30272 | -2.90552 | 126 ft | 7 kts | 327° |
| 2026-05-07 19:07 | 43.30313 | -2.90587 | 127 ft | 7 kts | 327° |
| 2026-05-07 19:08 | 43.30344 | -2.90616 | 127 ft | 1 kts | 328° |
| 2026-05-07 19:08 | 43.30348 | -2.90616 | 128 ft | 0 kts | 348° |
| 2026-05-07 19:08 | 43.30349 | -2.90616 | 128 ft | 0 kts | 3° |
| 2026-05-07 19:08 | 43.30355 | -2.90611 | 129 ft | 1 kts | 25° |
| 2026-05-07 19:09 | 43.30364 | -2.90605 | 128 ft | 1 kts | 25° |
| 2026-05-07 19:09 | 43.30373 | -2.90600 | 126 ft | 1 kts | 25° |
| 2026-05-07 19:09 | 43.30382 | -2.90594 | 126 ft | 2 kts | 26° |
| 2026-05-07 19:09 | 43.30403 | -2.90579 | 128 ft | 4 kts | 27° |
| 2026-05-07 19:10 | 43.30408 | -2.90576 | 129 ft | 0 kts | 27° |